LZIB/BTS METAR and TAF weather

Enter ICAO airport designator
Station Type Date Time Source
LZIB METAR 2021/05/12 04:30 UTC NOAA

LZIB 120430Z 05007KT CAVOK 15/10 Q1005 NOSIG


Station Type Date Time Source
LZIB Decoded METAR 2021/05/12 04:30 UTC NOAA

Bratislava Ivanka, Slovakia (LZIB) 48-12N 017-12E 142M
May 12, 2021 - 12:30 AM EDT / 2021.05.12 0430 UTC
Wind: from the NE (050 degrees) at 8 MPH (7 KT):0
Visibility: greater than 7 mile(s):0
Temperature: 59 F (15 C)
Dew Point: 50 F (10 C)
Relative Humidity: 72%
Pressure (altimeter): 29.68 in. Hg (1005 hPa)
ob: LZIB 120430Z 05007KT CAVOK 15/10 Q1005 NOSIG
cycle: 4

Station Type Date Time Source
LZIB TAF 2021/05/12 06:37 UTC NOAA

TAF LZIB 120500Z 1206/1306 03006KT 9999 SCT045
TEMPO 1206/1212 28015G25KT SHRA FEW040CB SCT045 PROB30
TEMPO 1206/1208 TSRA SCT035CB BKN040
BECMG 1208/1210 29012KT
TEMPO 1222/1306 -RA BKN040

Example: see airport list